sensor_id;sensor_type;location;lat;lon;timestamp;P1;durP1;ratioP1;P2;durP2;ratioP2
2408;SDS011;8463;48.094;7.970;2022-12-29T00:00:10;1.50;;;0.90;;
2408;SDS011;8463;48.094;7.970;2022-12-29T00:02:39;1.33;;;1.23;;
2408;SDS011;8463;48.094;7.970;2022-12-29T00:05:04;2.83;;;1.30;;
2408;SDS011;8463;48.094;7.970;2022-12-29T00:07:31;1.73;;;1.00;;
2408;SDS011;8463;48.094;7.970;2022-12-29T00:09:56;1.40;;;0.90;;
2408;SDS011;8463;48.094;7.970;2022-12-29T00:12:22;1.33;;;0.70;;
2408;SDS011;8463;48.094;7.970;2022-12-29T00:14:47;1.80;;;0.93;;
2408;SDS011;8463;48.094;7.970;2022-12-29T00:17:32;2.60;;;0.93;;
2408;SDS011;8463;48.094;7.970;2022-12-29T00:19:57;2.00;;;0.90;;
2408;SDS011;8463;48.094;7.970;2022-12-29T00:22:41;0.77;;;0.70;;
2408;SDS011;8463;48.094;7.970;2022-12-29T00:25:25;0.80;;;0.70;;
2408;SDS011;8463;48.094;7.970;2022-12-29T00:28:09;1.90;;;0.83;;
2408;SDS011;8463;48.094;7.970;2022-12-29T00:30:53;1.27;;;0.83;;
2408;SDS011;8463;48.094;7.970;2022-12-29T00:33:42;5.43;;;1.60;;
2408;SDS011;8463;48.094;7.970;2022-12-29T00:36:27;2.33;;;1.00;;
2408;SDS011;8463;48.094;7.970;2022-12-29T00:38:57;3.53;;;0.77;;
2408;SDS011;8463;48.094;7.970;2022-12-29T00:41:47;6.20;;;1.30;;
2408;SDS011;8463;48.094;7.970;2022-12-29T00:44:31;1.07;;;0.70;;
2408;SDS011;8463;48.094;7.970;2022-12-29T00:47:00;2.13;;;1.10;;
2408;SDS011;8463;48.094;7.970;2022-12-29T00:49:30;1.43;;;0.70;;
2408;SDS011;8463;48.094;7.970;2022-12-29T00:52:19;2.73;;;0.80;;
2408;SDS011;8463;48.094;7.970;2022-12-29T00:54:45;2.17;;;0.83;;
2408;SDS011;8463;48.094;7.970;2022-12-29T00:57:11;1.30;;;0.80;;
2408;SDS011;8463;48.094;7.970;2022-12-29T00:59:38;0.80;;;0.70;;
2408;SDS011;8463;48.094;7.970;2022-12-29T01:02:08;2.17;;;0.97;;
2408;SDS011;8463;48.094;7.970;2022-12-29T01:04:37;2.10;;;0.90;;
2408;SDS011;8463;48.094;7.970;2022-12-29T01:07:02;0.90;;;0.70;;
2408;SDS011;8463;48.094;7.970;2022-12-29T01:09:31;2.27;;;1.10;;
2408;SDS011;8463;48.094;7.970;2022-12-29T01:12:18;1.93;;;0.80;;
2408;SDS011;8463;48.094;7.970;2022-12-29T01:15:03;1.80;;;1.07;;
2408;SDS011;8463;48.094;7.970;2022-12-29T01:17:32;1.57;;;1.00;;
2408;SDS011;8463;48.094;7.970;2022-12-29T01:19:58;1.47;;;1.20;;
2408;SDS011;8463;48.094;7.970;2022-12-29T01:22:24;1.03;;;0.90;;
2408;SDS011;8463;48.094;7.970;2022-12-29T01:24:49;0.97;;;0.97;;
2408;SDS011;8463;48.094;7.970;2022-12-29T01:27:15;1.27;;;0.93;;
2408;SDS011;8463;48.094;7.970;2022-12-29T01:29:41;1.57;;;0.70;;
2408;SDS011;8463;48.094;7.970;2022-12-29T01:32:06;1.23;;;0.97;;
2408;SDS011;8463;48.094;7.970;2022-12-29T01:34:32;2.87;;;1.00;;
2408;SDS011;8463;48.094;7.970;2022-12-29T01:36:57;1.10;;;0.80;;
2408;SDS011;8463;48.094;7.970;2022-12-29T01:39:26;1.90;;;0.90;;
2408;SDS011;8463;48.094;7.970;2022-12-29T01:41:51;1.27;;;1.00;;
2408;SDS011;8463;48.094;7.970;2022-12-29T01:52:55;2.40;;;1.03;;
2408;SDS011;8463;48.094;7.970;2022-12-29T01:55:31;1.17;;;0.93;;
2408;SDS011;8463;48.094;7.970;2022-12-29T01:58:01;0.97;;;0.87;;
2408;SDS011;8463;48.094;7.970;2022-12-29T02:00:30;2.30;;;1.20;;
2408;SDS011;8463;48.094;7.970;2022-12-29T02:02:55;0.90;;;0.80;;
2408;SDS011;8463;48.094;7.970;2022-12-29T02:05:26;0.93;;;0.83;;
2408;SDS011;8463;48.094;7.970;2022-12-29T02:07:56;1.57;;;0.93;;
2408;SDS011;8463;48.094;7.970;2022-12-29T02:10:22;2.03;;;0.90;;
2408;SDS011;8463;48.094;7.970;2022-12-29T02:12:53;1.17;;;0.97;;
2408;SDS011;8463;48.094;7.970;2022-12-29T02:15:20;2.83;;;0.90;;
2408;SDS011;8463;48.094;7.970;2022-12-29T02:18:00;1.13;;;1.03;;
2408;SDS011;8463;48.094;7.970;2022-12-29T02:26:42;2.30;;;2.10;;
2408;SDS011;8463;48.094;7.970;2022-12-29T02:31:55;1.80;;;0.93;;
2408;SDS011;8463;48.094;7.970;2022-12-29T02:37:30;0.93;;;0.90;;
2408;SDS011;8463;48.094;7.970;2022-12-29T02:42:43;1.57;;;0.90;;
2408;SDS011;8463;48.094;7.970;2022-12-29T02:50:23;1.33;;;0.80;;
2408;SDS011;8463;48.094;7.970;2022-12-29T02:52:54;4.30;;;1.50;;
2408;SDS011;8463;48.094;7.970;2022-12-29T02:55:24;1.30;;;0.97;;
2408;SDS011;8463;48.094;7.970;2022-12-29T02:58:35;2.00;;;0.80;;
2408;SDS011;8463;48.094;7.970;2022-12-29T03:00:47;1.90;;;0.90;;
2408;SDS011;8463;48.094;7.970;2022-12-29T03:11:12;2.93;;;1.60;;
2408;SDS011;8463;48.094;7.970;2022-12-29T03:14:08;2.87;;;1.77;;
2408;SDS011;8463;48.094;7.970;2022-12-29T03:17:08;1.33;;;1.10;;
2408;SDS011;8463;48.094;7.970;2022-12-29T03:19:41;2.63;;;1.43;;
2408;SDS011;8463;48.094;7.970;2022-12-29T03:22:12;1.53;;;1.40;;
2408;SDS011;8463;48.094;7.970;2022-12-29T03:27:49;4.00;;;1.43;;
2408;SDS011;8463;48.094;7.970;2022-12-29T03:30:24;1.30;;;1.10;;
2408;SDS011;8463;48.094;7.970;2022-12-29T03:32:53;2.73;;;1.77;;
2408;SDS011;8463;48.094;7.970;2022-12-29T03:35:22;1.50;;;1.40;;
2408;SDS011;8463;48.094;7.970;2022-12-29T03:38:11;3.20;;;1.63;;
2408;SDS011;8463;48.094;7.970;2022-12-29T03:40:48;2.47;;;1.17;;
2408;SDS011;8463;48.094;7.970;2022-12-29T03:43:17;1.83;;;1.10;;
2408;SDS011;8463;48.094;7.970;2022-12-29T03:45:43;1.83;;;1.30;;
2408;SDS011;8463;48.094;7.970;2022-12-29T03:48:09;2.43;;;1.60;;
2408;SDS011;8463;48.094;7.970;2022-12-29T03:50:35;1.33;;;1.23;;
2408;SDS011;8463;48.094;7.970;2022-12-29T03:53:00;1.87;;;1.20;;
2408;SDS011;8463;48.094;7.970;2022-12-29T03:55:26;2.13;;;1.30;;
2408;SDS011;8463;48.094;7.970;2022-12-29T03:57:51;1.50;;;1.40;;
2408;SDS011;8463;48.094;7.970;2022-12-29T04:00:17;2.20;;;1.90;;
2408;SDS011;8463;48.094;7.970;2022-12-29T04:02:43;1.80;;;1.27;;
2408;SDS011;8463;48.094;7.970;2022-12-29T04:05:08;2.10;;;1.83;;
2408;SDS011;8463;48.094;7.970;2022-12-29T04:07:34;1.67;;;1.33;;
2408;SDS011;8463;48.094;7.970;2022-12-29T04:09:59;2.37;;;1.50;;
2408;SDS011;8463;48.094;7.970;2022-12-29T04:12:25;3.13;;;1.70;;
2408;SDS011;8463;48.094;7.970;2022-12-29T04:14:50;2.43;;;1.70;;
2408;SDS011;8463;48.094;7.970;2022-12-29T04:17:19;3.27;;;1.50;;
2408;SDS011;8463;48.094;7.970;2022-12-29T04:19:45;1.70;;;1.43;;
2408;SDS011;8463;48.094;7.970;2022-12-29T04:22:10;3.13;;;1.60;;
2408;SDS011;8463;48.094;7.970;2022-12-29T04:24:36;2.77;;;1.60;;
2408;SDS011;8463;48.094;7.970;2022-12-29T04:27:02;2.43;;;1.60;;
2408;SDS011;8463;48.094;7.970;2022-12-29T04:29:28;2.33;;;1.50;;
2408;SDS011;8463;48.094;7.970;2022-12-29T04:31:53;2.57;;;1.97;;
2408;SDS011;8463;48.094;7.970;2022-12-29T04:34:28;2.63;;;2.20;;
2408;SDS011;8463;48.094;7.970;2022-12-29T04:36:53;3.30;;;1.50;;
2408;SDS011;8463;48.094;7.970;2022-12-29T04:39:19;3.00;;;2.10;;
2408;SDS011;8463;48.094;7.970;2022-12-29T04:41:45;1.87;;;1.43;;
2408;SDS011;8463;48.094;7.970;2022-12-29T04:44:11;1.80;;;1.53;;
2408;SDS011;8463;48.094;7.970;2022-12-29T04:46:36;2.00;;;1.33;;
2408;SDS011;8463;48.094;7.970;2022-12-29T04:49:02;4.10;;;1.63;;
2408;SDS011;8463;48.094;7.970;2022-12-29T04:51:33;3.17;;;1.70;;
2408;SDS011;8463;48.094;7.970;2022-12-29T04:53:58;1.83;;;1.47;;
2408;SDS011;8463;48.094;7.970;2022-12-29T04:56:24;3.70;;;2.17;;
2408;SDS011;8463;48.094;7.970;2022-12-29T04:58:50;5.83;;;1.93;;
2408;SDS011;8463;48.094;7.970;2022-12-29T05:01:15;3.00;;;1.77;;
2408;SDS011;8463;48.094;7.970;2022-12-29T05:03:41;1.97;;;1.40;;
2408;SDS011;8463;48.094;7.970;2022-12-29T05:06:06;1.97;;;1.30;;
2408;SDS011;8463;48.094;7.970;2022-12-29T05:08:32;1.90;;;1.70;;
2408;SDS011;8463;48.094;7.970;2022-12-29T05:10:57;2.07;;;1.40;;
2408;SDS011;8463;48.094;7.970;2022-12-29T05:13:23;2.10;;;1.53;;
2408;SDS011;8463;48.094;7.970;2022-12-29T05:15:49;2.70;;;1.60;;
2408;SDS011;8463;48.094;7.970;2022-12-29T05:18:19;2.00;;;1.57;;
2408;SDS011;8463;48.094;7.970;2022-12-29T05:20:45;2.60;;;1.10;;
2408;SDS011;8463;48.094;7.970;2022-12-29T05:23:14;1.97;;;1.50;;
2408;SDS011;8463;48.094;7.970;2022-12-29T05:25:40;1.40;;;1.30;;
2408;SDS011;8463;48.094;7.970;2022-12-29T05:28:06;2.30;;;1.20;;
2408;SDS011;8463;48.094;7.970;2022-12-29T05:30:31;2.70;;;1.13;;
2408;SDS011;8463;48.094;7.970;2022-12-29T05:32:57;1.70;;;1.60;;
2408;SDS011;8463;48.094;7.970;2022-12-29T05:35:22;1.30;;;1.13;;
2408;SDS011;8463;48.094;7.970;2022-12-29T05:37:48;2.47;;;1.50;;
2408;SDS011;8463;48.094;7.970;2022-12-29T05:40:14;1.80;;;1.30;;
2408;SDS011;8463;48.094;7.970;2022-12-29T05:42:39;1.20;;;1.10;;
2408;SDS011;8463;48.094;7.970;2022-12-29T05:45:05;1.03;;;0.93;;
2408;SDS011;8463;48.094;7.970;2022-12-29T05:47:32;3.07;;;1.10;;
2408;SDS011;8463;48.094;7.970;2022-12-29T05:49:58;1.60;;;1.20;;
2408;SDS011;8463;48.094;7.970;2022-12-29T05:52:23;1.20;;;0.90;;
2408;SDS011;8463;48.094;7.970;2022-12-29T05:54:49;2.17;;;1.23;;
2408;SDS011;8463;48.094;7.970;2022-12-29T05:57:17;2.77;;;1.37;;
2408;SDS011;8463;48.094;7.970;2022-12-29T05:59:42;2.03;;;1.10;;
2408;SDS011;8463;48.094;7.970;2022-12-29T06:02:09;1.17;;;1.07;;
2408;SDS011;8463;48.094;7.970;2022-12-29T06:04:34;1.27;;;1.17;;
2408;SDS011;8463;48.094;7.970;2022-12-29T06:07:00;1.30;;;1.00;;
2408;SDS011;8463;48.094;7.970;2022-12-29T06:09:25;1.17;;;0.77;;
2408;SDS011;8463;48.094;7.970;2022-12-29T06:11:51;1.60;;;1.00;;
2408;SDS011;8463;48.094;7.970;2022-12-29T06:14:17;1.20;;;0.90;;
2408;SDS011;8463;48.094;7.970;2022-12-29T06:16:42;1.77;;;1.23;;
2408;SDS011;8463;48.094;7.970;2022-12-29T06:19:08;1.17;;;1.00;;
2408;SDS011;8463;48.094;7.970;2022-12-29T06:21:38;1.67;;;1.00;;
2408;SDS011;8463;48.094;7.970;2022-12-29T06:24:07;1.50;;;0.90;;
2408;SDS011;8463;48.094;7.970;2022-12-29T06:26:32;1.60;;;0.87;;
2408;SDS011;8463;48.094;7.970;2022-12-29T06:28:58;2.30;;;1.70;;
2408;SDS011;8463;48.094;7.970;2022-12-29T06:31:24;2.17;;;1.00;;
2408;SDS011;8463;48.094;7.970;2022-12-29T06:33:49;1.67;;;0.90;;
2408;SDS011;8463;48.094;7.970;2022-12-29T06:36:15;1.37;;;1.10;;
2408;SDS011;8463;48.094;7.970;2022-12-29T06:38:40;2.33;;;1.00;;
2408;SDS011;8463;48.094;7.970;2022-12-29T06:41:06;1.33;;;1.17;;
2408;SDS011;8463;48.094;7.970;2022-12-29T06:43:31;2.33;;;1.10;;
2408;SDS011;8463;48.094;7.970;2022-12-29T06:45:58;2.70;;;1.00;;
2408;SDS011;8463;48.094;7.970;2022-12-29T06:48:24;1.47;;;0.80;;
2408;SDS011;8463;48.094;7.970;2022-12-29T06:50:49;3.27;;;1.50;;
2408;SDS011;8463;48.094;7.970;2022-12-29T06:53:15;1.10;;;1.00;;
2408;SDS011;8463;48.094;7.970;2022-12-29T06:55:41;1.60;;;1.00;;
2408;SDS011;8463;48.094;7.970;2022-12-29T06:58:07;1.80;;;1.27;;
2408;SDS011;8463;48.094;7.970;2022-12-29T07:00:33;1.73;;;0.90;;
2408;SDS011;8463;48.094;7.970;2022-12-29T07:03:01;1.43;;;0.80;;
2408;SDS011;8463;48.094;7.970;2022-12-29T07:05:27;1.07;;;0.90;;
2408;SDS011;8463;48.094;7.970;2022-12-29T07:07:53;2.30;;;1.07;;
2408;SDS011;8463;48.094;7.970;2022-12-29T07:10:19;1.53;;;0.80;;
2408;SDS011;8463;48.094;7.970;2022-12-29T07:12:46;5.37;;;1.20;;
2408;SDS011;8463;48.094;7.970;2022-12-29T07:15:12;0.97;;;0.87;;
2408;SDS011;8463;48.094;7.970;2022-12-29T07:17:37;1.20;;;0.90;;
2408;SDS011;8463;48.094;7.970;2022-12-29T07:20:03;2.97;;;0.90;;
2408;SDS011;8463;48.094;7.970;2022-12-29T07:22:30;2.47;;;1.80;;
2408;SDS011;8463;48.094;7.970;2022-12-29T07:24:55;3.70;;;1.40;;
2408;SDS011;8463;48.094;7.970;2022-12-29T07:27:21;1.30;;;1.07;;
2408;SDS011;8463;48.094;7.970;2022-12-29T07:29:46;1.53;;;0.87;;
2408;SDS011;8463;48.094;7.970;2022-12-29T07:32:12;1.33;;;0.73;;
2408;SDS011;8463;48.094;7.970;2022-12-29T07:34:37;0.80;;;0.70;;
2408;SDS011;8463;48.094;7.970;2022-12-29T07:37:04;0.97;;;0.70;;
2408;SDS011;8463;48.094;7.970;2022-12-29T07:39:30;3.40;;;0.90;;
2408;SDS011;8463;48.094;7.970;2022-12-29T07:41:56;1.70;;;1.20;;
2408;SDS011;8463;48.094;7.970;2022-12-29T07:44:21;1.87;;;1.33;;
2408;SDS011;8463;48.094;7.970;2022-12-29T07:46:47;1.53;;;1.43;;
2408;SDS011;8463;48.094;7.970;2022-12-29T07:49:12;4.97;;;1.77;;
2408;SDS011;8463;48.094;7.970;2022-12-29T07:51:38;16.00;;;8.03;;
2408;SDS011;8463;48.094;7.970;2022-12-29T07:54:03;37.07;;;12.93;;
2408;SDS011;8463;48.094;7.970;2022-12-29T07:56:29;39.57;;;16.70;;
2408;SDS011;8463;48.094;7.970;2022-12-29T07:58:55;5.73;;;4.13;;
2408;SDS011;8463;48.094;7.970;2022-12-29T08:01:20;2.00;;;1.30;;
2408;SDS011;8463;48.094;7.970;2022-12-29T08:03:48;3.27;;;1.00;;
2408;SDS011;8463;48.094;7.970;2022-12-29T08:06:13;2.57;;;1.40;;
2408;SDS011;8463;48.094;7.970;2022-12-29T08:08:39;2.50;;;1.20;;
2408;SDS011;8463;48.094;7.970;2022-12-29T08:11:05;1.70;;;1.37;;
2408;SDS011;8463;48.094;7.970;2022-12-29T08:13:32;1.90;;;1.53;;
2408;SDS011;8463;48.094;7.970;2022-12-29T08:15:58;2.20;;;1.40;;
2408;SDS011;8463;48.094;7.970;2022-12-29T08:18:24;2.07;;;1.20;;
2408;SDS011;8463;48.094;7.970;2022-12-29T08:20:50;2.67;;;1.63;;
2408;SDS011;8463;48.094;7.970;2022-12-29T08:23:15;2.00;;;1.30;;
2408;SDS011;8463;48.094;7.970;2022-12-29T08:25:41;1.10;;;0.93;;
2408;SDS011;8463;48.094;7.970;2022-12-29T08:28:06;3.20;;;1.27;;
2408;SDS011;8463;48.094;7.970;2022-12-29T08:30:32;2.40;;;1.20;;
2408;SDS011;8463;48.094;7.970;2022-12-29T08:32:58;2.60;;;1.10;;
2408;SDS011;8463;48.094;7.970;2022-12-29T08:35:23;1.47;;;1.17;;
2408;SDS011;8463;48.094;7.970;2022-12-29T08:37:51;2.20;;;1.63;;
2408;SDS011;8463;48.094;7.970;2022-12-29T08:40:16;3.00;;;1.70;;
2408;SDS011;8463;48.094;7.970;2022-12-29T08:42:42;2.43;;;1.50;;
2408;SDS011;8463;48.094;7.970;2022-12-29T08:45:08;2.30;;;1.37;;
2408;SDS011;8463;48.094;7.970;2022-12-29T08:47:34;1.13;;;1.03;;
2408;SDS011;8463;48.094;7.970;2022-12-29T08:50:00;1.60;;;1.27;;
2408;SDS011;8463;48.094;7.970;2022-12-29T08:52:26;1.50;;;0.97;;
2408;SDS011;8463;48.094;7.970;2022-12-29T08:54:51;1.40;;;1.00;;
2408;SDS011;8463;48.094;7.970;2022-12-29T08:57:17;2.00;;;1.00;;
2408;SDS011;8463;48.094;7.970;2022-12-29T08:59:43;1.20;;;1.00;;
2408;SDS011;8463;48.094;7.970;2022-12-29T09:02:12;1.70;;;1.30;;
2408;SDS011;8463;48.094;7.970;2022-12-29T09:04:37;2.00;;;1.40;;
2408;SDS011;8463;48.094;7.970;2022-12-29T09:07:03;1.10;;;0.90;;
2408;SDS011;8463;48.094;7.970;2022-12-29T09:09:29;1.90;;;1.27;;
2408;SDS011;8463;48.094;7.970;2022-12-29T09:11:57;3.43;;;1.43;;
2408;SDS011;8463;48.094;7.970;2022-12-29T09:14:24;2.43;;;1.43;;
2408;SDS011;8463;48.094;7.970;2022-12-29T09:16:53;1.80;;;1.20;;
2408;SDS011;8463;48.094;7.970;2022-12-29T09:19:37;1.70;;;1.60;;
2408;SDS011;8463;48.094;7.970;2022-12-29T09:22:03;2.00;;;1.23;;
2408;SDS011;8463;48.094;7.970;2022-12-29T09:24:29;2.33;;;1.70;;
2408;SDS011;8463;48.094;7.970;2022-12-29T09:26:55;4.07;;;1.50;;
2408;SDS011;8463;48.094;7.970;2022-12-29T09:29:23;1.63;;;1.50;;
2408;SDS011;8463;48.094;7.970;2022-12-29T09:31:49;1.57;;;1.20;;
2408;SDS011;8463;48.094;7.970;2022-12-29T09:34:14;1.63;;;1.50;;
2408;SDS011;8463;48.094;7.970;2022-12-29T09:36:40;1.23;;;1.00;;
2408;SDS011;8463;48.094;7.970;2022-12-29T09:39:06;2.50;;;1.50;;
2408;SDS011;8463;48.094;7.970;2022-12-29T09:41:35;2.53;;;1.40;;
2408;SDS011;8463;48.094;7.970;2022-12-29T09:44:13;2.20;;;1.60;;
2408;SDS011;8463;48.094;7.970;2022-12-29T09:46:41;2.93;;;1.53;;
2408;SDS011;8463;48.094;7.970;2022-12-29T09:49:54;2.33;;;1.50;;
2408;SDS011;8463;48.094;7.970;2022-12-29T09:54:55;2.20;;;1.50;;
2408;SDS011;8463;48.094;7.970;2022-12-29T09:57:27;1.17;;;1.03;;
2408;SDS011;8463;48.094;7.970;2022-12-29T10:02:40;1.60;;;1.40;;
2408;SDS011;8463;48.094;7.970;2022-12-29T10:05:13;1.97;;;1.40;;
2408;SDS011;8463;48.094;7.970;2022-12-29T10:07:43;2.50;;;1.63;;
2408;SDS011;8463;48.094;7.970;2022-12-29T10:10:24;3.47;;;1.80;;
2408;SDS011;8463;48.094;7.970;2022-12-29T10:12:58;2.67;;;1.50;;
2408;SDS011;8463;48.094;7.970;2022-12-29T10:23:32;1.97;;;1.83;;
2408;SDS011;8463;48.094;7.970;2022-12-29T10:26:10;3.50;;;1.60;;
2408;SDS011;8463;48.094;7.970;2022-12-29T10:28:42;2.43;;;1.67;;
2408;SDS011;8463;48.094;7.970;2022-12-29T10:31:09;4.63;;;2.33;;
2408;SDS011;8463;48.094;7.970;2022-12-29T10:33:45;2.23;;;1.90;;
2408;SDS011;8463;48.094;7.970;2022-12-29T10:36:15;6.10;;;1.70;;
2408;SDS011;8463;48.094;7.970;2022-12-29T10:41:21;3.53;;;2.07;;
2408;SDS011;8463;48.094;7.970;2022-12-29T10:43:54;3.60;;;2.03;;
2408;SDS011;8463;48.094;7.970;2022-12-29T10:46:26;2.43;;;1.60;;
2408;SDS011;8463;48.094;7.970;2022-12-29T10:48:54;3.20;;;1.67;;
2408;SDS011;8463;48.094;7.970;2022-12-29T10:51:24;4.37;;;1.93;;
2408;SDS011;8463;48.094;7.970;2022-12-29T10:59:41;2.20;;;2.00;;
2408;SDS011;8463;48.094;7.970;2022-12-29T11:07:07;3.70;;;2.77;;
2408;SDS011;8463;48.094;7.970;2022-12-29T11:09:35;6.60;;;2.83;;
2408;SDS011;8463;48.094;7.970;2022-12-29T11:21:03;1.97;;;1.80;;
2408;SDS011;8463;48.094;7.970;2022-12-29T11:28:33;2.50;;;1.90;;
2408;SDS011;8463;48.094;7.970;2022-12-29T11:30:59;2.47;;;2.00;;
2408;SDS011;8463;48.094;7.970;2022-12-29T11:33:37;2.90;;;2.27;;
2408;SDS011;8463;48.094;7.970;2022-12-29T11:36:04;4.47;;;2.53;;
2408;SDS011;8463;48.094;7.970;2022-12-29T11:38:54;4.33;;;1.80;;
2408;SDS011;8463;48.094;7.970;2022-12-29T11:41:25;3.23;;;2.10;;
2408;SDS011;8463;48.094;7.970;2022-12-29T11:43:53;2.77;;;1.80;;
2408;SDS011;8463;48.094;7.970;2022-12-29T11:46:26;2.20;;;1.90;;
2408;SDS011;8463;48.094;7.970;2022-12-29T11:48:55;3.33;;;1.43;;
2408;SDS011;8463;48.094;7.970;2022-12-29T11:51:28;3.17;;;1.87;;
2408;SDS011;8463;48.094;7.970;2022-12-29T11:53:59;2.40;;;2.20;;
2408;SDS011;8463;48.094;7.970;2022-12-29T11:56:45;4.77;;;2.60;;
2408;SDS011;8463;48.094;7.970;2022-12-29T12:02:24;3.40;;;2.10;;
2408;SDS011;8463;48.094;7.970;2022-12-29T12:07:56;1.53;;;1.40;;
2408;SDS011;8463;48.094;7.970;2022-12-29T12:10:29;5.30;;;1.50;;
2408;SDS011;8463;48.094;7.970;2022-12-29T12:13:18;2.10;;;1.77;;
2408;SDS011;8463;48.094;7.970;2022-12-29T12:21:18;1.50;;;1.23;;
2408;SDS011;8463;48.094;7.970;2022-12-29T12:29:32;1.97;;;1.07;;
2408;SDS011;8463;48.094;7.970;2022-12-29T12:32:20;2.13;;;1.43;;
2408;SDS011;8463;48.094;7.970;2022-12-29T12:34:54;4.00;;;2.03;;
2408;SDS011;8463;48.094;7.970;2022-12-29T12:40:02;2.13;;;1.70;;
2408;SDS011;8463;48.094;7.970;2022-12-29T12:50:32;1.97;;;1.40;;
2408;SDS011;8463;48.094;7.970;2022-12-29T12:53:26;2.33;;;1.40;;
2408;SDS011;8463;48.094;7.970;2022-12-29T12:58:54;1.30;;;1.20;;
2408;SDS011;8463;48.094;7.970;2022-12-29T13:17:32;3.07;;;1.70;;
2408;SDS011;8463;48.094;7.970;2022-12-29T13:38:40;2.83;;;1.77;;
2408;SDS011;8463;48.094;7.970;2022-12-29T13:41:10;3.33;;;1.53;;
2408;SDS011;8463;48.094;7.970;2022-12-29T13:43:42;2.00;;;1.70;;
2408;SDS011;8463;48.094;7.970;2022-12-29T13:46:19;1.90;;;1.30;;
2408;SDS011;8463;48.094;7.970;2022-12-29T13:51:22;1.93;;;1.13;;
2408;SDS011;8463;48.094;7.970;2022-12-29T14:02:15;4.00;;;1.77;;
2408;SDS011;8463;48.094;7.970;2022-12-29T14:05:04;1.60;;;1.50;;
2408;SDS011;8463;48.094;7.970;2022-12-29T14:07:57;3.90;;;2.30;;
2408;SDS011;8463;48.094;7.970;2022-12-29T14:15:59;4.10;;;2.53;;
2408;SDS011;8463;48.094;7.970;2022-12-29T14:18:25;4.30;;;1.90;;
2408;SDS011;8463;48.094;7.970;2022-12-29T14:20:54;3.20;;;2.80;;
2408;SDS011;8463;48.094;7.970;2022-12-29T14:23:36;5.90;;;3.70;;
2408;SDS011;8463;48.094;7.970;2022-12-29T14:31:02;3.90;;;2.30;;
2408;SDS011;8463;48.094;7.970;2022-12-29T14:33:30;5.00;;;3.13;;
2408;SDS011;8463;48.094;7.970;2022-12-29T14:38:45;2.67;;;1.77;;
2408;SDS011;8463;48.094;7.970;2022-12-29T14:41:16;1.70;;;1.33;;
2408;SDS011;8463;48.094;7.970;2022-12-29T14:43:58;3.80;;;1.50;;
2408;SDS011;8463;48.094;7.970;2022-12-29T14:46:41;6.40;;;2.10;;
2408;SDS011;8463;48.094;7.970;2022-12-29T14:49:14;2.13;;;1.50;;
2408;SDS011;8463;48.094;7.970;2022-12-29T14:51:42;2.37;;;1.37;;
2408;SDS011;8463;48.094;7.970;2022-12-29T14:57:08;1.40;;;1.30;;
2408;SDS011;8463;48.094;7.970;2022-12-29T14:59:45;2.03;;;1.80;;
2408;SDS011;8463;48.094;7.970;2022-12-29T15:02:14;2.00;;;1.67;;
2408;SDS011;8463;48.094;7.970;2022-12-29T15:04:43;3.90;;;2.50;;
2408;SDS011;8463;48.094;7.970;2022-12-29T15:07:11;2.40;;;1.77;;
2408;SDS011;8463;48.094;7.970;2022-12-29T15:09:42;1.93;;;1.73;;
2408;SDS011;8463;48.094;7.970;2022-12-29T15:14:55;3.20;;;2.73;;
2408;SDS011;8463;48.094;7.970;2022-12-29T15:17:23;6.27;;;2.40;;
2408;SDS011;8463;48.094;7.970;2022-12-29T15:19:52;3.30;;;2.80;;
2408;SDS011;8463;48.094;7.970;2022-12-29T15:22:18;3.63;;;2.90;;
2408;SDS011;8463;48.094;7.970;2022-12-29T15:24:44;2.23;;;1.70;;
2408;SDS011;8463;48.094;7.970;2022-12-29T15:27:12;5.07;;;2.10;;
2408;SDS011;8463;48.094;7.970;2022-12-29T15:29:41;2.03;;;1.60;;
2408;SDS011;8463;48.094;7.970;2022-12-29T15:34:42;3.30;;;2.90;;
2408;SDS011;8463;48.094;7.970;2022-12-29T15:37:09;3.17;;;2.10;;
2408;SDS011;8463;48.094;7.970;2022-12-29T15:39:41;2.80;;;1.80;;
2408;SDS011;8463;48.094;7.970;2022-12-29T15:44:51;2.20;;;2.00;;
2408;SDS011;8463;48.094;7.970;2022-12-29T15:49:45;3.10;;;1.47;;
2408;SDS011;8463;48.094;7.970;2022-12-29T15:52:17;2.63;;;1.60;;
2408;SDS011;8463;48.094;7.970;2022-12-29T15:54:48;3.83;;;1.77;;
2408;SDS011;8463;48.094;7.970;2022-12-29T15:57:24;3.43;;;1.80;;
2408;SDS011;8463;48.094;7.970;2022-12-29T15:59:52;2.73;;;1.80;;
2408;SDS011;8463;48.094;7.970;2022-12-29T16:02:24;2.20;;;1.60;;
2408;SDS011;8463;48.094;7.970;2022-12-29T16:04:51;2.47;;;1.30;;
2408;SDS011;8463;48.094;7.970;2022-12-29T16:07:25;2.47;;;1.77;;
2408;SDS011;8463;48.094;7.970;2022-12-29T16:09:56;2.40;;;1.20;;
2408;SDS011;8463;48.094;7.970;2022-12-29T16:12:24;4.13;;;1.70;;
2408;SDS011;8463;48.094;7.970;2022-12-29T16:15:03;2.00;;;1.90;;
2408;SDS011;8463;48.094;7.970;2022-12-29T16:17:42;2.07;;;1.87;;
2408;SDS011;8463;48.094;7.970;2022-12-29T16:20:17;3.83;;;1.80;;
2408;SDS011;8463;48.094;7.970;2022-12-29T16:22:57;2.77;;;2.50;;
2408;SDS011;8463;48.094;7.970;2022-12-29T16:25:34;2.67;;;1.63;;
2408;SDS011;8463;48.094;7.970;2022-12-29T16:28:02;3.50;;;1.97;;
2408;SDS011;8463;48.094;7.970;2022-12-29T16:30:45;1.73;;;1.50;;
2408;SDS011;8463;48.094;7.970;2022-12-29T16:33:35;3.73;;;1.50;;
2408;SDS011;8463;48.094;7.970;2022-12-29T16:36:01;1.70;;;1.20;;
2408;SDS011;8463;48.094;7.970;2022-12-29T16:38:31;1.60;;;1.50;;
2408;SDS011;8463;48.094;7.970;2022-12-29T16:40:59;2.23;;;1.40;;
2408;SDS011;8463;48.094;7.970;2022-12-29T16:43:33;3.03;;;1.70;;
2408;SDS011;8463;48.094;7.970;2022-12-29T16:46:15;5.43;;;2.50;;
2408;SDS011;8463;48.094;7.970;2022-12-29T16:48:45;1.47;;;1.30;;
2408;SDS011;8463;48.094;7.970;2022-12-29T16:53:53;1.80;;;1.70;;
2408;SDS011;8463;48.094;7.970;2022-12-29T16:56:20;1.93;;;1.80;;
2408;SDS011;8463;48.094;7.970;2022-12-29T16:58:50;3.23;;;2.70;;
2408;SDS011;8463;48.094;7.970;2022-12-29T17:01:19;2.67;;;1.80;;
2408;SDS011;8463;48.094;7.970;2022-12-29T17:03:52;4.00;;;2.40;;
2408;SDS011;8463;48.094;7.970;2022-12-29T17:06:20;3.60;;;1.63;;
2408;SDS011;8463;48.094;7.970;2022-12-29T17:08:47;2.77;;;2.20;;
2408;SDS011;8463;48.094;7.970;2022-12-29T17:14:03;3.33;;;2.10;;
2408;SDS011;8463;48.094;7.970;2022-12-29T17:16:31;2.47;;;2.07;;
2408;SDS011;8463;48.094;7.970;2022-12-29T17:18:57;1.43;;;1.30;;
2408;SDS011;8463;48.094;7.970;2022-12-29T17:21:22;1.30;;;1.20;;
2408;SDS011;8463;48.094;7.970;2022-12-29T17:23:48;1.60;;;1.40;;
2408;SDS011;8463;48.094;7.970;2022-12-29T17:26:13;2.17;;;1.23;;
2408;SDS011;8463;48.094;7.970;2022-12-29T17:28:39;1.93;;;1.53;;
2408;SDS011;8463;48.094;7.970;2022-12-29T17:31:05;2.33;;;1.00;;
2408;SDS011;8463;48.094;7.970;2022-12-29T17:33:35;2.50;;;1.30;;
2408;SDS011;8463;48.094;7.970;2022-12-29T17:36:02;1.50;;;1.23;;
2408;SDS011;8463;48.094;7.970;2022-12-29T17:38:28;1.60;;;1.00;;
2408;SDS011;8463;48.094;7.970;2022-12-29T17:40:55;3.97;;;1.60;;
2408;SDS011;8463;48.094;7.970;2022-12-29T17:43:22;0.87;;;0.80;;
2408;SDS011;8463;48.094;7.970;2022-12-29T17:45:52;1.83;;;1.50;;
2408;SDS011;8463;48.094;7.970;2022-12-29T17:48:20;2.17;;;1.97;;
2408;SDS011;8463;48.094;7.970;2022-12-29T17:50:46;3.23;;;1.60;;
2408;SDS011;8463;48.094;7.970;2022-12-29T17:53:15;1.47;;;1.10;;
2408;SDS011;8463;48.094;7.970;2022-12-29T17:55:45;2.30;;;1.07;;
2408;SDS011;8463;48.094;7.970;2022-12-29T17:58:14;1.50;;;1.40;;
2408;SDS011;8463;48.094;7.970;2022-12-29T18:00:45;2.80;;;1.50;;
2408;SDS011;8463;48.094;7.970;2022-12-29T18:03:13;1.87;;;1.70;;
2408;SDS011;8463;48.094;7.970;2022-12-29T18:05:43;1.53;;;1.43;;
2408;SDS011;8463;48.094;7.970;2022-12-29T18:08:09;1.13;;;1.00;;
2408;SDS011;8463;48.094;7.970;2022-12-29T18:10:38;2.73;;;1.17;;
2408;SDS011;8463;48.094;7.970;2022-12-29T18:13:05;3.43;;;1.10;;
2408;SDS011;8463;48.094;7.970;2022-12-29T18:15:38;1.00;;;0.70;;
2408;SDS011;8463;48.094;7.970;2022-12-29T18:18:10;2.00;;;1.00;;
2408;SDS011;8463;48.094;7.970;2022-12-29T18:20:38;1.60;;;1.30;;
2408;SDS011;8463;48.094;7.970;2022-12-29T18:23:24;3.30;;;1.00;;
2408;SDS011;8463;48.094;7.970;2022-12-29T18:28:25;1.50;;;1.40;;
2408;SDS011;8463;48.094;7.970;2022-12-29T18:30:52;3.90;;;2.00;;
2408;SDS011;8463;48.094;7.970;2022-12-29T18:33:20;3.00;;;1.63;;
2408;SDS011;8463;48.094;7.970;2022-12-29T18:35:59;4.23;;;1.73;;
2408;SDS011;8463;48.094;7.970;2022-12-29T18:38:29;2.13;;;1.50;;
2408;SDS011;8463;48.094;7.970;2022-12-29T18:40:55;2.30;;;2.10;;